createdAt,value
2017-07-30T00:00:40.895Z,87.02
2017-07-30T00:01:42.139Z,86.82
2017-07-30T00:02:43.371Z,87.4
2017-07-30T00:03:44.683Z,87.88
2017-07-30T00:04:45.988Z,87.4
2017-07-30T00:05:47.226Z,87.79
2017-07-30T00:06:48.470Z,87.4
2017-07-30T00:07:49.843Z,87.6
2017-07-30T00:08:51.089Z,87.6
2017-07-30T00:09:52.326Z,87.6
2017-07-30T00:10:53.563Z,87.12
2017-07-30T00:11:54.828Z,87.3
2017-07-30T00:12:56.174Z,87.3
2017-07-30T00:13:57.477Z,86.63
2017-07-30T00:14:58.732Z,87.02
2017-07-30T00:15:59.976Z,86.92
2017-07-30T00:17:01.220Z,87.12
2017-07-30T00:18:02.483Z,87.02
2017-07-30T00:19:03.723Z,86.63
2017-07-30T00:20:04.959Z,86.54
2017-07-30T00:21:06.194Z,86.54
2017-07-30T00:22:07.455Z,86.44
2017-07-30T00:23:08.745Z,86.35
2017-07-30T00:24:10.089Z,86.35
2017-07-30T00:25:11.312Z,86.63
2017-07-30T00:26:12.557Z,85.67
2017-07-30T00:27:13.794Z,85.77
2017-07-30T00:28:15.039Z,85.28
2017-07-30T00:29:16.413Z,85.19
2017-07-30T00:30:17.661Z,84.65
2017-07-30T00:31:18.918Z,84.55
2017-07-30T00:32:20.157Z,84.84
2017-07-30T00:33:21.409Z,84.46
2017-07-30T00:34:22.649Z,84.46
2017-07-30T00:35:23.898Z,83.98
2017-07-30T00:36:25.142Z,84.27
2017-07-30T00:37:26.430Z,83.69
2017-07-30T00:38:27.677Z,83.88
2017-07-30T00:39:28.909Z,83.5
2017-07-30T00:40:30.160Z,83.5
2017-07-30T00:41:31.406Z,83.4
2017-07-30T00:42:32.676Z,83.4
2017-07-30T00:43:34.001Z,83.44
2017-07-30T00:44:35.235Z,84.89
2017-07-30T00:45:36.486Z,87.1
2017-07-30T00:46:37.731Z,88.02
2017-07-30T00:47:38.974Z,89.86
2017-07-30T00:48:40.241Z,91.69
2017-07-30T00:49:41.493Z,92.46
2017-07-30T00:50:42.744Z,93.38
2017-07-30T00:51:44.053Z,93.96
2017-07-30T00:52:45.293Z,93.86
2017-07-30T00:53:46.529Z,94.92
2017-07-30T00:54:47.781Z,95.02
2017-07-30T00:55:49.009Z,95.89
2017-07-30T00:56:50.364Z,96.37
2017-07-30T00:57:51.667Z,96.37
2017-07-30T00:58:52.913Z,96.75
2017-07-30T00:59:54.169Z,97.24
2017-07-30T01:00:55.412Z,97.52
2017-07-30T01:01:56.717Z,97.72
2017-07-30T01:02:57.958Z,98.58
2017-07-30T01:03:59.201Z,98.54
2017-07-30T01:05:00.456Z,98.92
2017-07-30T01:06:01.695Z,99.59
2017-07-30T01:07:02.965Z,99.59
2017-07-30T01:08:04.265Z,99.45
2017-07-30T01:09:05.504Z,99.99
2017-07-30T01:10:06.762Z,99.99
2017-07-30T01:11:08.006Z,99.99
2017-07-30T01:12:09.239Z,99.99
2017-07-30T01:13:10.528Z,99.99
2017-07-30T01:14:11.790Z,99.99
2017-07-30T01:15:13.108Z,99.99
2017-07-30T01:16:14.356Z,99.99
2017-07-30T01:17:15.617Z,99.99
2017-07-30T01:18:16.854Z,99.99
2017-07-30T01:19:18.103Z,99.99
2017-07-30T01:20:19.366Z,99.99
2017-07-30T01:21:20.621Z,99.99
2017-07-30T01:22:21.866Z,99.99
2017-07-30T01:23:23.111Z,99.99
2017-07-30T01:24:24.409Z,99.99
2017-07-30T01:25:25.669Z,99.99
2017-07-30T01:26:26.945Z,99.99
2017-07-30T01:27:28.251Z,99.99
2017-07-30T01:28:29.488Z,99.99
2017-07-30T01:29:30.739Z,99.99
2017-07-30T01:30:32.003Z,99.99
2017-07-30T01:31:33.258Z,99.99
2017-07-30T01:32:34.532Z,99.99
2017-07-30T01:33:35.772Z,99.99
2017-07-30T01:34:37.056Z,99.99
2017-07-30T01:35:38.331Z,99.99
2017-07-30T01:36:39.676Z,99.99
2017-07-30T01:37:40.917Z,99.99
2017-07-30T01:38:42.166Z,99.99
2017-07-30T01:39:43.431Z,99.99
2017-07-30T01:40:44.667Z,99.99
2017-07-30T01:41:46.006Z,99.99
2017-07-30T01:42:47.254Z,99.99
2017-07-30T01:43:48.513Z,99.99
2017-07-30T01:44:49.960Z,99.99
2017-07-30T01:45:51.209Z,99.99
2017-07-30T01:46:52.464Z,99.99
2017-07-30T01:47:53.719Z,99.99
2017-07-30T01:48:55.005Z,99.99
2017-07-30T01:49:56.223Z,99.99
2017-07-30T01:50:57.470Z,99.99
2017-07-30T01:51:58.742Z,99.99
2017-07-30T01:53:00.048Z,99.99
2017-07-30T01:54:01.354Z,99.99
2017-07-30T01:55:02.576Z,99.99
2017-07-30T01:56:03.821Z,99.99
2017-07-30T01:57:05.063Z,99.99
2017-07-30T01:58:06.310Z,99.99
2017-07-30T01:59:07.561Z,99.99
2017-07-30T02:00:08.845Z,99.99
2017-07-30T02:01:10.085Z,99.99
2017-07-30T02:02:11.326Z,99.99
2017-07-30T02:03:12.620Z,99.99
2017-07-30T02:04:13.853Z,99.99
2017-07-30T02:05:15.129Z,99.99
2017-07-30T02:06:16.382Z,99.99
2017-07-30T02:07:17.654Z,99.99
2017-07-30T02:08:18.903Z,99.99
2017-07-30T02:09:20.139Z,99.99
2017-07-30T02:10:21.376Z,99.99
2017-07-30T02:11:22.668Z,99.99
2017-07-30T02:12:23.968Z,99.99
2017-07-30T02:13:25.217Z,99.99
2017-07-30T02:14:26.514Z,99.99
2017-07-30T02:15:27.745Z,99.99
2017-07-30T02:16:28.984Z,99.99
2017-07-30T02:17:30.281Z,99.99
2017-07-30T02:18:31.522Z,99.99
2017-07-30T02:19:32.759Z,99.99
2017-07-30T02:20:33.998Z,99.99
2017-07-30T02:21:35.242Z,99.99
2017-07-30T02:22:36.575Z,99.99
2017-07-30T02:23:37.818Z,99.99
2017-07-30T02:24:39.053Z,99.99
2017-07-30T02:25:40.296Z,99.99
2017-07-30T02:26:41.543Z,99.99
2017-07-30T02:27:42.786Z,99.99
2017-07-30T02:28:44.049Z,99.99
2017-07-30T02:29:45.278Z,99.99
2017-07-30T02:30:46.513Z,99.99
2017-07-30T02:31:47.761Z,99.99
2017-07-30T02:32:49.026Z,99.99
2017-07-30T02:33:50.266Z,99.99
2017-07-30T02:34:51.520Z,99.99
2017-07-30T02:35:52.766Z,99.99
2017-07-30T02:36:54.092Z,99.99
2017-07-30T02:37:55.322Z,99.99
2017-07-30T02:38:56.667Z,99.99
2017-07-30T02:39:57.900Z,99.99
2017-07-30T02:40:59.149Z,99.99
2017-07-30T02:42:00.408Z,99.99
2017-07-30T02:43:01.645Z,99.99
2017-07-30T02:44:02.982Z,99.99
2017-07-30T02:45:04.231Z,99.99
2017-07-30T02:46:05.474Z,99.99
2017-07-30T02:47:06.742Z,99.99
2017-07-30T02:48:07.966Z,99.99
2017-07-30T02:49:09.205Z,99.99
2017-07-30T02:50:10.458Z,99.99
2017-07-30T02:51:11.762Z,99.99
2017-07-30T02:52:13.153Z,99.99
2017-07-30T02:53:14.389Z,99.99
2017-07-30T02:54:15.630Z,99.99
2017-07-30T02:55:16.969Z,99.99
2017-07-30T02:56:18.223Z,99.99
2017-07-30T02:57:19.528Z,99.99
2017-07-30T02:58:20.770Z,99.99
2017-07-30T02:59:22.015Z,99.99
2017-07-30T03:00:23.253Z,99.99
2017-07-30T03:01:24.494Z,99.99
2017-07-30T03:02:25.735Z,99.99
2017-07-30T03:03:26.974Z,99.99
2017-07-30T03:04:28.221Z,99.99
2017-07-30T03:05:29.472Z,99.99
2017-07-30T03:06:30.717Z,99.99
2017-07-30T03:07:31.957Z,99.99
2017-07-30T03:08:33.205Z,99.99
2017-07-30T03:09:34.454Z,99.99
2017-07-30T03:10:35.780Z,99.99
2017-07-30T03:11:37.012Z,99.99
2017-07-30T03:12:38.269Z,99.99
2017-07-30T03:13:39.490Z,99.99
2017-07-30T03:14:40.729Z,99.5
2017-07-30T03:15:42.140Z,99.88
2017-07-30T03:16:43.379Z,99.4
2017-07-30T03:17:44.627Z,99.88
2017-07-30T03:18:45.865Z,99.99
2017-07-30T03:19:47.102Z,99.59
2017-07-30T03:20:48.357Z,99.69
2017-07-30T03:21:49.596Z,99.99
2017-07-30T03:22:50.879Z,99.79
2017-07-30T03:23:52.170Z,99.59
2017-07-30T03:24:53.414Z,99.99
2017-07-30T03:25:54.802Z,99.99
2017-07-30T03:26:56.041Z,99.99
2017-07-30T03:27:57.278Z,99.99
2017-07-30T03:28:58.537Z,99.99
2017-07-30T03:29:59.760Z,99.99
2017-07-30T03:31:00.994Z,99.99
2017-07-30T03:32:02.236Z,99.99
2017-07-30T03:33:03.473Z,99.99
2017-07-30T03:34:04.817Z,99.99
2017-07-30T03:35:06.117Z,99.99
2017-07-30T03:36:07.380Z,99.99
2017-07-30T03:37:08.612Z,99.99
2017-07-30T03:38:09.849Z,99.99
2017-07-30T03:39:11.124Z,99.99
2017-07-30T03:40:12.339Z,99.99
2017-07-30T03:41:13.582Z,99.99
2017-07-30T03:42:14.818Z,99.99
2017-07-30T03:43:16.104Z,99.99
2017-07-30T03:44:17.343Z,99.84
2017-07-30T03:45:18.655Z,99.93
2017-07-30T03:46:19.872Z,99.84
2017-07-30T03:47:21.176Z,99.59
2017-07-30T03:48:22.459Z,99.84
2017-07-30T03:49:23.790Z,99.74
2017-07-30T03:50:25.031Z,99.69
2017-07-30T03:51:26.278Z,99.02
2017-07-30T03:52:27.523Z,98.82
2017-07-30T03:53:28.774Z,98.72
2017-07-30T03:54:30.047Z,98.54
2017-07-30T03:55:31.284Z,98.72
2017-07-30T03:56:32.522Z,98.44
2017-07-30T03:57:33.768Z,98.54
2017-07-30T03:58:35.010Z,97.76
2017-07-30T03:59:36.274Z,97.96
2017-07-30T04:00:37.499Z,97.76
2017-07-30T04:01:38.740Z,97.28
2017-07-30T04:02:39.976Z,98.72
2017-07-30T04:03:41.217Z,97.57
2017-07-30T04:04:42.525Z,97.28
2017-07-30T04:05:43.765Z,97.76
2017-07-30T04:06:45.089Z,97.38
2017-07-30T04:07:46.424Z,96.99
2017-07-30T04:08:47.729Z,96.99
2017-07-30T04:09:48.961Z,97.57
2017-07-30T04:10:50.201Z,97.09
2017-07-30T04:11:51.444Z,97.28
2017-07-30T04:12:52.680Z,97.57
2017-07-30T04:13:53.935Z,96.8
2017-07-30T04:14:55.161Z,96.32
2017-07-30T04:15:56.373Z,96.03
2017-07-30T04:16:57.818Z,96.8
2017-07-30T04:17:59.073Z,96.7
2017-07-30T04:19:00.399Z,96.22
2017-07-30T04:20:01.706Z,95.94
2017-07-30T04:21:02.947Z,96.32
2017-07-30T04:22:04.191Z,96.22
2017-07-30T04:23:05.424Z,96.61
2017-07-30T04:24:06.787Z,96.61
2017-07-30T04:25:08.036Z,96.42
2017-07-30T04:26:09.277Z,96.32
2017-07-30T04:27:10.518Z,96.32
2017-07-30T04:28:11.761Z,95.89
2017-07-30T04:29:13.002Z,95.64
2017-07-30T04:30:14.341Z,96.12
2017-07-30T04:31:15.563Z,96.37
2017-07-30T04:32:16.799Z,96.32
2017-07-30T04:33:18.042Z,96.32
2017-07-30T04:34:19.277Z,95.64
2017-07-30T04:35:20.578Z,95.59
2017-07-30T04:36:21.830Z,95.74
2017-07-30T04:37:23.123Z,95.89
2017-07-30T04:38:24.374Z,96.08
2017-07-30T04:39:25.626Z,95.94
2017-07-30T04:40:26.862Z,95.4
2017-07-30T04:41:28.098Z,94.92
2017-07-30T04:42:29.342Z,95.11
2017-07-30T04:43:30.692Z,95.21
2017-07-30T04:44:31.933Z,95.21
2017-07-30T04:45:33.167Z,95.02
2017-07-30T04:46:34.408Z,94.92
2017-07-30T04:47:35.647Z,94.34
2017-07-30T04:48:36.888Z,94.44
2017-07-30T04:49:38.261Z,94.82
2017-07-30T04:50:39.495Z,94.44
2017-07-30T04:51:40.835Z,94.73
2017-07-30T04:52:42.076Z,94.44
2017-07-30T04:53:43.311Z,93.96
2017-07-30T04:54:44.651Z,94.24
2017-07-30T04:55:45.891Z,94.15
2017-07-30T04:56:47.146Z,94.63
2017-07-30T04:57:48.381Z,93.96
2017-07-30T04:58:49.639Z,93.96
2017-07-30T04:59:50.881Z,93.86
2017-07-30T05:00:52.119Z,93.96
2017-07-30T05:01:53.404Z,93.96
2017-07-30T05:02:54.687Z,93.96
2017-07-30T05:03:55.916Z,92.94
2017-07-30T05:04:57.151Z,93.04
2017-07-30T05:05:58.391Z,92.9
2017-07-30T05:06:59.648Z,92.17
2017-07-30T05:08:00.908Z,91.88
2017-07-30T05:09:02.262Z,91.88
2017-07-30T05:10:03.591Z,91.6
2017-07-30T05:11:04.762Z,91.3
2017-07-30T05:12:06.005Z,91.4
2017-07-30T05:13:07.250Z,91.78
2017-07-30T05:14:08.605Z,90.63
2017-07-30T05:15:09.940Z,90.44
2017-07-30T05:16:11.165Z,90.34
2017-07-30T05:17:12.416Z,89.86
2017-07-30T05:18:13.660Z,89.81
2017-07-30T05:19:14.922Z,89.51
2017-07-30T05:20:16.459Z,89.32
2017-07-30T05:21:17.782Z,89.32
2017-07-30T05:22:19.023Z,88.84
2017-07-30T05:23:20.264Z,88.36
2017-07-30T05:24:21.532Z,88.75
2017-07-30T05:25:22.764Z,87.97
2017-07-30T05:26:24.003Z,88.17
2017-07-30T05:27:25.252Z,87.34
2017-07-30T05:28:26.643Z,87.05
2017-07-30T05:29:27.890Z,86.57
2017-07-30T05:30:29.133Z,85.89
2017-07-30T05:31:30.368Z,86.76
2017-07-30T05:32:31.603Z,85.99
2017-07-30T05:33:32.938Z,85.7
2017-07-30T05:34:34.184Z,85.5
2017-07-30T05:35:35.436Z,85.5
2017-07-30T05:36:36.689Z,84.35
2017-07-30T05:37:37.923Z,84.97
2017-07-30T05:38:39.181Z,84.68
2017-07-30T05:39:40.433Z,84.97
2017-07-30T05:40:41.742Z,84.39
2017-07-30T05:41:42.917Z,84.88
2017-07-30T05:42:44.156Z,84.78
2017-07-30T05:43:45.399Z,84.3
2017-07-30T05:44:46.628Z,83.72
2017-07-30T05:45:47.879Z,84.3
2017-07-30T05:46:49.124Z,83.23
2017-07-30T05:47:50.373Z,82.75
2017-07-30T05:48:51.798Z,83.47
2017-07-30T05:49:53.032Z,83.08
2017-07-30T05:50:54.344Z,82.6
2017-07-30T05:51:55.597Z,82.11
2017-07-30T05:52:56.830Z,82.5
2017-07-30T05:53:58.091Z,81.73
2017-07-30T05:54:59.346Z,81.82
2017-07-30T05:56:00.587Z,81.05
2017-07-30T05:57:01.833Z,81.44
2017-07-30T05:58:03.130Z,80.76
2017-07-30T05:59:04.452Z,80.99
2017-07-30T06:00:05.693Z,81.19
2017-07-30T06:01:06.936Z,80.95
2017-07-30T06:02:08.171Z,81.09
2017-07-30T06:03:09.414Z,81.19
2017-07-30T06:04:10.696Z,81.09
2017-07-30T06:05:12.029Z,81.19
2017-07-30T06:06:13.273Z,81.19
2017-07-30T06:07:14.506Z,80.41
2017-07-30T06:08:15.757Z,80.41
2017-07-30T06:09:17.094Z,79.45
2017-07-30T06:10:18.377Z,79.39
2017-07-30T06:11:19.639Z,78.61
2017-07-30T06:12:20.856Z,78.81
2017-07-30T06:13:22.095Z,78.81
2017-07-30T06:14:23.352Z,78.17
2017-07-30T06:15:24.662Z,77.5
2017-07-30T06:16:25.909Z,76.53
2017-07-30T06:17:27.152Z,76.43
2017-07-30T06:18:28.396Z,76.46
2017-07-30T06:19:29.737Z,76.53
2017-07-30T06:20:30.974Z,76.18
2017-07-30T06:21:32.213Z,75.79
2017-07-30T06:22:33.454Z,75.4
2017-07-30T06:23:34.701Z,75.21
2017-07-30T06:24:35.942Z,73.79
2017-07-30T06:25:37.501Z,74.02
2017-07-30T06:26:38.630Z,72.18
2017-07-30T06:27:39.872Z,71.89
2017-07-30T06:28:41.126Z,71.6
2017-07-30T06:29:42.621Z,72.67
2017-07-30T06:30:43.934Z,71.89
2017-07-30T06:31:45.179Z,72.09
2017-07-30T06:32:46.421Z,69.83
2017-07-30T06:33:47.667Z,69.38
2017-07-30T06:34:48.946Z,67.11
2017-07-30T06:35:50.293Z,63.81
2017-07-30T06:36:51.532Z,61.15
2017-07-30T06:37:52.781Z,58.67
2017-07-30T06:38:54.018Z,56.1
2017-07-30T06:39:55.257Z,53.52
2017-07-30T06:40:56.506Z,52.2
2017-07-30T06:41:57.852Z,49.97
2017-07-30T06:42:59.026Z,50.05
2017-07-30T06:44:00.261Z,50.73
2017-07-30T06:45:01.520Z,50.27
2017-07-30T06:46:02.825Z,50.71
2017-07-30T06:47:04.087Z,50.93
2017-07-30T06:48:05.329Z,49.68
2017-07-30T06:49:06.583Z,48.24
2017-07-30T06:50:07.863Z,47.3
2017-07-30T06:51:09.096Z,46.52
2017-07-30T06:52:10.390Z,45.54
2017-07-30T06:53:11.648Z,45.95
2017-07-30T06:54:12.903Z,45.44
2017-07-30T06:55:14.175Z,46.01
2017-07-30T06:56:15.398Z,46.75
2017-07-30T06:57:16.641Z,47.89
2017-07-30T06:58:18.074Z,49.24
2017-07-30T06:59:19.417Z,49.33
2017-07-30T07:00:20.666Z,49.33
2017-07-30T07:01:21.919Z,50.02
2017-07-30T07:02:23.164Z,50.1
2017-07-30T07:03:24.403Z,50.29
2017-07-30T07:04:25.656Z,50
2017-07-30T07:05:26.903Z,49.43
2017-07-30T07:06:28.315Z,49.33
2017-07-30T07:07:29.614Z,49.41
2017-07-30T07:08:30.830Z,50
2017-07-30T07:09:32.098Z,51.02
2017-07-30T07:10:33.320Z,51.51
2017-07-30T07:11:34.569Z,51.31
2017-07-30T07:12:35.841Z,51.51
2017-07-30T07:13:37.077Z,52.26
2017-07-30T07:14:38.341Z,52.17
2017-07-30T07:15:39.585Z,52.92
2017-07-30T07:16:40.824Z,52.75
2017-07-30T07:17:42.099Z,51.97
2017-07-30T07:18:43.350Z,51.31
2017-07-30T07:19:44.579Z,50.95
2017-07-30T07:20:45.831Z,50.36
2017-07-30T07:21:47.079Z,49.88
2017-07-30T07:22:48.326Z,49.98
2017-07-30T07:23:49.575Z,49.68
2017-07-30T07:24:50.839Z,49.8
2017-07-30T07:25:52.085Z,50.07
2017-07-30T07:26:53.357Z,50.1
2017-07-30T07:27:54.590Z,49.68
2017-07-30T07:28:55.841Z,49.8
2017-07-30T07:29:57.136Z,49.32
2017-07-30T07:30:58.481Z,50.16
2017-07-30T07:31:59.742Z,50.75
2017-07-30T07:33:01.218Z,50.85
2017-07-30T07:34:02.459Z,50.46
2017-07-30T07:35:03.707Z,49.88
2017-07-30T07:36:05.052Z,49.32
2017-07-30T07:37:06.295Z,48.26
2017-07-30T07:38:07.624Z,46.82
2017-07-30T07:39:08.881Z,46.53
2017-07-30T07:40:10.136Z,47.02
2017-07-30T07:41:11.389Z,45.86
2017-07-30T07:42:12.672Z,45.18
2017-07-30T07:43:13.957Z,45.2
2017-07-30T07:44:15.200Z,44.3
2017-07-30T07:45:16.446Z,44.13
2017-07-30T07:46:17.696Z,43.81
2017-07-30T07:47:18.937Z,44.94
2017-07-30T07:48:20.213Z,46.36
2017-07-30T07:49:21.448Z,47.39
2017-07-30T07:50:22.782Z,48.34
2017-07-30T07:51:24.041Z,49.68
2017-07-30T07:52:25.279Z,50.14
2017-07-30T07:53:26.528Z,50.43
2017-07-30T07:54:27.772Z,50.34
2017-07-30T07:55:29.056Z,49.76
2017-07-30T07:56:30.386Z,49.56
2017-07-30T07:57:31.674Z,49.07
2017-07-30T07:58:32.914Z,47.69
2017-07-30T07:59:34.173Z,48.27
2017-07-30T08:00:35.461Z,48.34
2017-07-30T08:01:36.782Z,48.83
2017-07-30T08:02:38.049Z,49.58
2017-07-30T08:03:39.294Z,49.56
2017-07-30T08:04:40.544Z,50.43
2017-07-30T08:05:41.776Z,50.8
2017-07-30T08:06:43.086Z,51.21
2017-07-30T08:07:44.326Z,51.21
2017-07-30T08:08:45.581Z,51.4
2017-07-30T08:09:46.844Z,51.89
2017-07-30T08:10:48.083Z,51.5
2017-07-30T08:11:49.335Z,51.31
2017-07-30T08:12:50.625Z,51.04
2017-07-30T08:13:51.867Z,50.56
2017-07-30T08:14:53.113Z,50.36
2017-07-30T08:15:54.356Z,49.41
2017-07-30T08:16:55.605Z,48.75
2017-07-30T08:17:56.857Z,47.8
2017-07-30T08:18:58.103Z,47.73
2017-07-30T08:19:59.422Z,46.66
2017-07-30T08:21:00.723Z,46.95
2017-07-30T08:22:01.972Z,46.66
2017-07-30T08:23:03.212Z,47.05
2017-07-30T08:24:04.460Z,46.78
2017-07-30T08:25:05.709Z,46.12
2017-07-30T08:26:06.958Z,45.85
2017-07-30T08:27:08.258Z,45.65
2017-07-30T08:28:09.639Z,45.54
2017-07-30T08:29:10.873Z,46
2017-07-30T08:30:12.138Z,46.59
2017-07-30T08:31:13.381Z,46.86
2017-07-30T08:32:14.657Z,47.17
2017-07-30T08:33:16.017Z,47.17
2017-07-30T08:34:17.250Z,47.63
2017-07-30T08:35:18.506Z,47.85
2017-07-30T08:36:19.723Z,48.32
2017-07-30T08:37:20.959Z,48.32
2017-07-30T08:38:22.251Z,48.32
2017-07-30T08:39:23.504Z,48.39
2017-07-30T08:40:24.761Z,48.41
2017-07-30T08:41:26.014Z,48.58
2017-07-30T08:42:27.253Z,49.17
2017-07-30T08:43:28.554Z,48.68
2017-07-30T08:44:29.803Z,49.76
2017-07-30T08:45:31.124Z,48.32
2017-07-30T08:46:32.431Z,48.22
2017-07-30T08:47:33.687Z,48.41
2017-07-30T08:48:34.917Z,48.51
2017-07-30T08:49:36.161Z,48.63
2017-07-30T08:50:37.420Z,47.75
2017-07-30T08:51:38.744Z,48.54
2017-07-30T08:52:40.004Z,48.61
2017-07-30T08:53:41.243Z,48.51
2017-07-30T08:54:42.490Z,48.61
2017-07-30T08:55:43.732Z,48.44
2017-07-30T08:56:44.988Z,48.05
2017-07-30T08:57:46.262Z,46.9
2017-07-30T08:58:47.503Z,46.69
2017-07-30T08:59:48.756Z,47.17
2017-07-30T09:00:50.005Z,46.8
2017-07-30T09:01:51.254Z,46.61
2017-07-30T09:02:52.493Z,46.7
2017-07-30T09:03:53.742Z,46.8
2017-07-30T09:04:55.063Z,46.9
2017-07-30T09:05:56.306Z,47.63
2017-07-30T09:06:57.545Z,48.61
2017-07-30T09:07:58.804Z,48.88
2017-07-30T09:09:00.048Z,49.73
2017-07-30T09:10:01.391Z,50.97
2017-07-30T09:11:02.645Z,51.26
2017-07-30T09:12:04.021Z,52.21
2017-07-30T09:13:05.254Z,52.67
2017-07-30T09:14:06.500Z,53.54
2017-07-30T09:15:07.742Z,53.93
2017-07-30T09:16:09.096Z,54.2
2017-07-30T09:17:10.429Z,54.2
2017-07-30T09:18:11.681Z,55.17
2017-07-30T09:19:12.935Z,55.17
2017-07-30T09:20:14.179Z,55.46
2017-07-30T09:21:15.428Z,55.27
2017-07-30T09:22:16.689Z,56.24
2017-07-30T09:23:17.937Z,55.17
2017-07-30T09:24:19.173Z,54.32
2017-07-30T09:25:20.412Z,54.61
2017-07-30T09:26:21.659Z,52.98
2017-07-30T09:27:22.914Z,51.94
2017-07-30T09:28:24.154Z,52.43
2017-07-30T09:29:25.464Z,51.84
2017-07-30T09:30:26.780Z,51.94
2017-07-30T09:31:28.030Z,52.23
2017-07-30T09:32:29.281Z,52.26
2017-07-30T09:33:30.556Z,52.06
2017-07-30T09:34:31.813Z,51.67
2017-07-30T09:35:33.138Z,51.99
2017-07-30T09:36:34.373Z,51.12
2017-07-30T09:37:35.622Z,50.07
2017-07-30T09:38:36.888Z,48.46
2017-07-30T09:39:38.114Z,47.05
2017-07-30T09:40:39.362Z,44.82
2017-07-30T09:41:40.727Z,44.06
2017-07-30T09:42:41.996Z,42.54
2017-07-30T09:43:43.236Z,41.39
2017-07-30T09:44:44.475Z,41.19
2017-07-30T09:45:45.723Z,41
2017-07-30T09:46:47.005Z,39.66
2017-07-30T09:47:48.296Z,38.9
2017-07-30T09:48:49.700Z,37.76
2017-07-30T09:49:50.879Z,36.91
2017-07-30T09:50:52.134Z,34.97
2017-07-30T09:51:53.389Z,34.49
2017-07-30T09:52:54.648Z,33.72
2017-07-30T09:53:55.999Z,33.51
2017-07-30T09:54:57.228Z,34.95
2017-07-30T09:55:58.483Z,35.99
2017-07-30T09:56:59.750Z,36.92
2017-07-30T09:58:01.012Z,38.76
2017-07-30T09:59:02.358Z,39.9
2017-07-30T10:00:03.511Z,41.54
2017-07-30T10:01:04.860Z,42.5
2017-07-30T10:02:06.105Z,42.79
2017-07-30T10:03:07.356Z,41.99
2017-07-30T10:04:08.621Z,42.38
2017-07-30T10:05:09.870Z,43.36
2017-07-30T10:06:11.134Z,42.29
2017-07-30T10:07:12.496Z,42.75
2017-07-30T10:08:13.741Z,43.26
2017-07-30T10:09:15.082Z,42.99
2017-07-30T10:10:16.334Z,40.88
2017-07-30T10:11:17.582Z,38.98
2017-07-30T10:12:18.840Z,37.23
2017-07-30T10:13:20.216Z,36.47
2017-07-30T10:14:21.467Z,35.8
2017-07-30T10:15:22.716Z,35.49
2017-07-30T10:16:23.955Z,36.08
2017-07-30T10:17:25.337Z,35.41
2017-07-30T10:18:26.633Z,35.6
2017-07-30T10:19:27.892Z,35.21
2017-07-30T10:20:29.140Z,35.02
2017-07-30T10:21:30.400Z,35.31
2017-07-30T10:22:31.660Z,35
2017-07-30T10:23:33.033Z,36.04
2017-07-30T10:24:34.387Z,37.1
2017-07-30T10:25:35.636Z,38.53
2017-07-30T10:26:36.930Z,39.67
2017-07-30T10:27:38.169Z,40.23
2017-07-30T10:28:39.441Z,40.63
2017-07-30T10:29:40.702Z,41.28
2017-07-30T10:30:41.999Z,41.38
2017-07-30T10:31:43.248Z,41.5
2017-07-30T10:32:44.492Z,41.31
2017-07-30T10:33:45.736Z,41.38
2017-07-30T10:34:47.010Z,41.48
2017-07-30T10:35:48.348Z,42.07
2017-07-30T10:36:49.637Z,42.34
2017-07-30T10:37:50.857Z,43.12
2017-07-30T10:38:52.094Z,43.02
2017-07-30T10:39:53.333Z,43.39
2017-07-30T10:40:54.632Z,44.15
2017-07-30T10:41:55.889Z,45.39
2017-07-30T10:42:57.172Z,46.54
2017-07-30T10:43:58.419Z,46.83
2017-07-30T10:44:59.662Z,47
2017-07-30T10:46:00.909Z,47.88
2017-07-30T10:47:02.166Z,48.39
2017-07-30T10:48:03.409Z,47.8
2017-07-30T10:49:04.685Z,47.71
2017-07-30T10:50:05.907Z,47.52
2017-07-30T10:51:07.162Z,46.95
2017-07-30T10:52:08.405Z,47.05
2017-07-30T10:53:09.652Z,45.9
2017-07-30T10:54:11.032Z,46.02
2017-07-30T10:55:12.318Z,45.54
2017-07-30T10:56:13.568Z,44.97
2017-07-30T10:57:14.811Z,45.17
2017-07-30T10:58:16.064Z,44.12
2017-07-30T10:59:17.354Z,43.92
2017-07-30T11:00:18.616Z,43.24
2017-07-30T11:01:19.875Z,43.33
2017-07-30T11:02:21.111Z,43.24
2017-07-30T11:03:22.359Z,43.14
2017-07-30T11:04:23.621Z,44.21
2017-07-30T11:05:24.870Z,44.14
2017-07-30T11:06:26.154Z,43.46
2017-07-30T11:07:27.386Z,43.16
2017-07-30T11:08:28.644Z,42.6
2017-07-30T11:09:29.995Z,42.11
2017-07-30T11:10:31.258Z,42.6
2017-07-30T11:11:32.502Z,42.11
2017-07-30T11:12:33.752Z,41.91
2017-07-30T11:13:35.108Z,41.33
2017-07-30T11:14:36.348Z,41.03
2017-07-30T11:15:37.599Z,41.52
2017-07-30T11:16:39.096Z,41.42
2017-07-30T11:17:40.483Z,42.03
2017-07-30T11:18:41.690Z,41.64
2017-07-30T11:19:42.986Z,41.42
2017-07-30T11:20:44.229Z,41.62
2017-07-30T11:21:45.475Z,42.01
2017-07-30T11:22:46.734Z,42.09
2017-07-30T11:23:47.980Z,43.82
2017-07-30T11:24:49.224Z,42.65
2017-07-30T11:25:50.499Z,42.73
2017-07-30T11:26:51.748Z,43.12
2017-07-30T11:27:52.996Z,43.71
2017-07-30T11:28:54.238Z,43.9
2017-07-30T11:29:55.525Z,43.51
2017-07-30T11:30:56.872Z,43.88
2017-07-30T11:31:58.141Z,43.68
2017-07-30T11:32:59.391Z,43.98
2017-07-30T11:34:00.631Z,43.39
2017-07-30T11:35:01.880Z,43.29
2017-07-30T11:36:03.174Z,43.68
2017-07-30T11:37:04.419Z,44.17
2017-07-30T11:38:05.668Z,43.47
2017-07-30T11:39:06.918Z,42.88
2017-07-30T11:40:08.165Z,43.05
2017-07-30T11:41:09.416Z,43.93
2017-07-30T11:42:10.667Z,44.13
2017-07-30T11:43:11.911Z,43.54
2017-07-30T11:44:13.432Z,43.74
2017-07-30T11:45:14.683Z,42.86
2017-07-30T11:46:15.932Z,42.94
2017-07-30T11:47:17.371Z,43.04
2017-07-30T11:48:18.614Z,43.04
2017-07-30T11:49:19.873Z,43.89
2017-07-30T11:50:21.141Z,44.1
2017-07-30T11:51:22.400Z,44.09
2017-07-30T11:52:23.624Z,44.18
2017-07-30T11:53:24.871Z,44.28
2017-07-30T11:54:26.129Z,44.06
2017-07-30T11:55:27.443Z,44.94
2017-07-30T11:56:28.689Z,45.23
2017-07-30T11:57:29.949Z,45.81
2017-07-30T11:58:31.185Z,45.98
2017-07-30T11:59:32.435Z,45.6
2017-07-30T12:00:33.676Z,45.5
2017-07-30T12:01:35.156Z,45.31
2017-07-30T12:02:36.403Z,42.97
2017-07-30T12:03:37.670Z,41.69
2017-07-30T12:04:39.158Z,42.46
2017-07-30T12:05:40.438Z,42.27
2017-07-30T12:06:41.729Z,42.46
2017-07-30T12:07:43.009Z,42.85
2017-07-30T12:08:44.250Z,43.15
2017-07-30T12:09:45.509Z,43.82
2017-07-30T12:10:46.864Z,43.92
2017-07-30T12:11:48.113Z,44.31
2017-07-30T12:12:49.356Z,43.63
2017-07-30T12:13:50.667Z,42.27
2017-07-30T12:14:51.925Z,41.1
2017-07-30T12:15:53.158Z,41.59
2017-07-30T12:16:54.863Z,42.36
2017-07-30T12:17:56.116Z,41.59
2017-07-30T12:18:57.287Z,41.1
2017-07-30T12:19:58.544Z,41.78
2017-07-30T12:20:59.801Z,42.56
2017-07-30T12:22:01.085Z,42.27
2017-07-30T12:23:02.361Z,41.69
2017-07-30T12:24:03.606Z,41.2
2017-07-30T12:25:04.867Z,41.13
2017-07-30T12:26:06.166Z,41.32
2017-07-30T12:27:07.406Z,41.22
2017-07-30T12:28:08.648Z,41.03
2017-07-30T12:29:09.903Z,41.32
2017-07-30T12:30:11.156Z,41.32
2017-07-30T12:31:12.570Z,41.03
2017-07-30T12:32:13.804Z,41.13
2017-07-30T12:33:15.053Z,41.61
2017-07-30T12:34:16.300Z,41.05
2017-07-30T12:35:17.582Z,40.75
2017-07-30T12:36:18.912Z,40.37
2017-07-30T12:37:20.160Z,39.7
2017-07-30T12:38:21.474Z,39.98
2017-07-30T12:39:22.708Z,40.19
2017-07-30T12:40:23.960Z,40.56
2017-07-30T12:41:25.312Z,40.17
2017-07-30T12:42:26.602Z,40.97
2017-07-30T12:43:27.855Z,40.39
2017-07-30T12:44:29.108Z,39.39
2017-07-30T12:45:30.375Z,39.2
2017-07-30T12:46:31.619Z,40.27
2017-07-30T12:47:32.868Z,39.98
2017-07-30T12:48:34.193Z,40.66
2017-07-30T12:49:35.423Z,39.39
2017-07-30T12:50:36.679Z,39.29
2017-07-30T12:51:37.925Z,38.42
2017-07-30T12:52:39.252Z,38.52
2017-07-30T12:53:40.616Z,38.62
2017-07-30T12:54:41.874Z,39.88
2017-07-30T12:55:43.169Z,39.29
2017-07-30T12:56:44.401Z,38.98
2017-07-30T12:57:45.664Z,38.91
2017-07-30T12:58:46.980Z,39
2017-07-30T12:59:48.234Z,39.2
2017-07-30T13:00:49.474Z,38.89
2017-07-30T13:01:50.835Z,39.08
2017-07-30T13:02:52.092Z,39.18
2017-07-30T13:03:53.337Z,39.08
2017-07-30T13:04:54.607Z,39.18
2017-07-30T13:05:55.852Z,39.94
2017-07-30T13:06:57.189Z,40.03
2017-07-30T13:07:58.420Z,40.13
2017-07-30T13:08:59.671Z,40.13
2017-07-30T13:10:00.970Z,40.13
2017-07-30T13:11:02.208Z,39.94
2017-07-30T13:12:03.545Z,40.03